sensor_id;sensor_type;location;lat;lon;timestamp;temperature;humidity
72919;SHT30;68407;55.694;26.994;2023-04-24T00:01:13;10.2;66.7
72919;SHT30;68407;55.694;26.994;2023-04-24T00:06:55;10.3;66.5
72919;SHT30;68407;55.694;26.994;2023-04-24T00:11:43;10.3;66.2
72919;SHT30;68407;55.694;26.994;2023-04-24T00:16:25;10.4;65.9
72919;SHT30;68407;55.694;26.994;2023-04-24T00:21:13;10.4;65.6
72919;SHT30;68407;55.694;26.994;2023-04-24T00:26:57;10.5;65.3
72919;SHT30;68407;55.694;26.994;2023-04-24T00:31:13;10.5;65.3
72919;SHT30;68407;55.694;26.994;2023-04-24T00:36:45;10.5;65.3
72919;SHT30;68407;55.694;26.994;2023-04-24T00:41:55;10.5;65.2
72919;SHT30;68407;55.694;26.994;2023-04-24T00:46:23;10.6;65.1
72919;SHT30;68407;55.694;26.994;2023-04-24T00:51:13;10.6;64.8
72919;SHT30;68407;55.694;26.994;2023-04-24T00:56:23;10.6;64.8
72919;SHT30;68407;55.694;26.994;2023-04-24T01:01:25;10.6;64.9
72919;SHT30;68407;55.694;26.994;2023-04-24T01:06:47;10.5;65.1
72919;SHT30;68407;55.694;26.994;2023-04-24T01:11:23;10.5;65.2
72919;SHT30;68407;55.694;26.994;2023-04-24T01:16:25;10.5;65.2
72919;SHT30;68407;55.694;26.994;2023-04-24T01:21:43;10.5;65.3
72919;SHT30;68407;55.694;26.994;2023-04-24T01:26:55;10.4;65.5
72919;SHT30;68407;55.694;26.994;2023-04-24T01:31:19;10.3;65.8
72919;SHT30;68407;55.694;26.994;2023-04-24T01:36:31;10.3;65.9
72919;SHT30;68407;55.694;26.994;2023-04-24T01:41:23;10.3;66.1
72919;SHT30;68407;55.694;26.994;2023-04-24T01:46:55;10.3;66.2
72919;SHT30;68407;55.694;26.994;2023-04-24T01:51:47;10.2;66.4
72919;SHT30;68407;55.694;26.994;2023-04-24T01:56:31;10.2;66.6
72919;SHT30;68407;55.694;26.994;2023-04-24T02:01:55;10.2;66.5
72919;SHT30;68407;55.694;26.994;2023-04-24T02:06:35;10.2;66.6
72919;SHT30;68407;55.694;26.994;2023-04-24T02:11:13;10.1;66.6
72919;SHT30;68407;55.694;26.994;2023-04-24T02:16:13;10.2;66.6
72919;SHT30;68407;55.694;26.994;2023-04-24T02:21:55;10.1;66.7
72919;SHT30;68407;55.694;26.994;2023-04-24T02:26:13;10.1;66.8
72919;SHT30;68407;55.694;26.994;2023-04-24T02:31:53;10;66.8
72919;SHT30;68407;55.694;26.994;2023-04-24T02:36:57;10;67
72919;SHT30;68407;55.694;26.994;2023-04-24T02:41:13;9.9;67.2
72919;SHT30;68407;55.694;26.994;2023-04-24T02:46:35;10;67.1
72919;SHT30;68407;55.694;26.994;2023-04-24T02:51:41;10;67.1
72919;SHT30;68407;55.694;26.994;2023-04-24T02:56:43;10.1;67
72919;SHT30;68407;55.694;26.994;2023-04-24T03:01:47;10.1;66.8
72919;SHT30;68407;55.694;26.994;2023-04-24T03:06:25;10;67
72919;SHT30;68407;55.694;26.994;2023-04-24T03:11:57;10.1;67
72919;SHT30;68407;55.694;26.994;2023-04-24T03:16:43;10.1;66.8
72919;SHT30;68407;55.694;26.994;2023-04-24T03:21:23;10.2;66.7
72919;SHT30;68407;55.694;26.994;2023-04-24T03:26:13;10.2;66.8
72919;SHT30;68407;55.694;26.994;2023-04-24T03:31:55;10.3;66.6
72919;SHT30;68407;55.694;26.994;2023-04-24T03:36:35;10.4;66.2
72919;SHT30;68407;55.694;26.994;2023-04-24T03:41:43;10.6;66
72919;SHT30;68407;55.694;26.994;2023-04-24T03:46:43;10.7;65.9
72919;SHT30;68407;55.694;26.994;2023-04-24T03:51:23;10.9;65.5
72919;SHT30;68407;55.694;26.994;2023-04-24T03:56:43;11.2;64.8
72919;SHT30;68407;55.694;26.994;2023-04-24T04:01:35;11.3;64.5
72919;SHT30;68407;55.694;26.994;2023-04-24T04:06:13;11.5;64.1
72919;SHT30;68407;55.694;26.994;2023-04-24T04:11:47;11.7;63.4
72919;SHT30;68407;55.694;26.994;2023-04-24T04:16:55;12;62.8
72919;SHT30;68407;55.694;26.994;2023-04-24T04:21:13;12.3;62.1
72919;SHT30;68407;55.694;26.994;2023-04-24T04:26:43;12.5;61.7
72919;SHT30;68407;55.694;26.994;2023-04-24T04:31:47;12.8;60.9
72919;SHT30;68407;55.694;26.994;2023-04-24T04:36:31;12.9;60.4
72919;SHT30;68407;55.694;26.994;2023-04-24T04:41:35;13.2;59.7
72919;SHT30;68407;55.694;26.994;2023-04-24T04:46:13;13.4;59.2
72919;SHT30;68407;55.694;26.994;2023-04-24T04:51:55;13.7;58.5
72919;SHT30;68407;55.694;26.994;2023-04-24T04:56:35;13.9;58.1
72919;SHT30;68407;55.694;26.994;2023-04-24T05:01:13;14.1;58
72919;SHT30;68407;55.694;26.994;2023-04-24T05:06:53;14.4;57.4
72919;SHT30;68407;55.694;26.994;2023-04-24T05:11:35;14.7;57.1
72919;SHT30;68407;55.694;26.994;2023-04-24T05:16:19;14.9;56.4
72919;SHT30;68407;55.694;26.994;2023-04-24T05:21:13;15.1;56.5
72919;SHT30;68407;55.694;26.994;2023-04-24T05:26:53;15.4;55.6
72919;SHT30;68407;55.694;26.994;2023-04-24T05:31:13;15.6;55.3
72919;SHT30;68407;55.694;26.994;2023-04-24T05:36:55;15.9;54.7
72919;SHT30;68407;55.694;26.994;2023-04-24T05:41:53;16;54.7
72919;SHT30;68407;55.694;26.994;2023-04-24T05:46:13;16.2;53.8
72919;SHT30;68407;55.694;26.994;2023-04-24T05:51:33;16.3;53.6
72919;SHT30;68407;55.694;26.994;2023-04-24T05:56:37;16.5;53.4
72919;SHT30;68407;55.694;26.994;2023-04-24T06:01:43;16.7;53.7
72919;SHT30;68407;55.694;26.994;2023-04-24T06:06:45;16.9;52.9
72919;SHT30;68407;55.694;26.994;2023-04-24T06:11:13;17.1;52.2
72919;SHT30;68407;55.694;26.994;2023-04-24T06:16:53;17.2;51.9
72919;SHT30;68407;55.694;26.994;2023-04-24T06:21:41;17.3;51.7
72919;SHT30;68407;55.694;26.994;2023-04-24T06:26:13;17.5;51.7
72919;SHT30;68407;55.694;26.994;2023-04-24T06:31:43;17.6;51.4
72919;SHT30;68407;55.694;26.994;2023-04-24T06:36:53;17.8;50.9
72919;SHT30;68407;55.694;26.994;2023-04-24T06:41:13;17.8;51.2
72919;SHT30;68407;55.694;26.994;2023-04-24T06:46:41;18.1;51.1
72919;SHT30;68407;55.694;26.994;2023-04-24T06:51:41;18.5;49.9
72919;SHT30;68407;55.694;26.994;2023-04-24T06:56:11;18.7;49.4
72919;SHT30;68407;55.694;26.994;2023-04-24T07:01:39;18.8;49
72919;SHT30;68407;55.694;26.994;2023-04-24T07:06:33;19;48.8
72919;SHT30;68407;55.694;26.994;2023-04-24T07:11:11;19.2;48.3
72919;SHT30;68407;55.694;26.994;2023-04-24T07:16:45;19.3;47.6
72919;SHT30;68407;55.694;26.994;2023-04-24T07:21:45;19.4;47.3
72919;SHT30;68407;55.694;26.994;2023-04-24T07:26:13;19.7;46.8
72919;SHT30;68407;55.694;26.994;2023-04-24T07:31:45;19.9;46.2
72919;SHT30;68407;55.694;26.994;2023-04-24T07:36:47;20.2;45.4
72919;SHT30;68407;55.694;26.994;2023-04-24T07:41:43;20.4;44.8
72919;SHT30;68407;55.694;26.994;2023-04-24T07:46:35;20.5;44.4
72919;SHT30;68407;55.694;26.994;2023-04-24T07:51:35;20.8;44.5
72919;SHT30;68407;55.694;26.994;2023-04-24T07:56:55;20.9;43.5
72919;SHT30;68407;55.694;26.994;2023-04-24T08:01:57;21;43.3
72919;SHT30;68407;55.694;26.994;2023-04-24T08:06:21;21.2;43
72919;SHT30;68407;55.694;26.994;2023-04-24T08:11:57;21.2;42.7
72919;SHT30;68407;55.694;26.994;2023-04-24T08:16:47;21.4;42.7
72919;SHT30;68407;55.694;26.994;2023-04-24T08:21:13;21.7;41.1
72919;SHT30;68407;55.694;26.994;2023-04-24T08:26:31;21.8;40.3
72919;SHT30;68407;55.694;26.994;2023-04-24T08:31:57;22.1;39.4
72919;SHT30;68407;55.694;26.994;2023-04-24T08:36:21;22.4;38.2
72919;SHT30;68407;55.694;26.994;2023-04-24T08:41:39;22.6;37
72919;SHT30;68407;55.694;26.994;2023-04-24T08:46:57;22.7;36.9
72919;SHT30;68407;55.694;26.994;2023-04-24T08:51:13;22.7;35.6
72919;SHT30;68407;55.694;26.994;2023-04-24T08:56:35;22.4;35.3
72919;SHT30;68407;55.694;26.994;2023-04-24T09:01:45;22.3;35.7
72919;SHT30;68407;55.694;26.994;2023-04-24T09:06:43;22.6;36
72919;SHT30;68407;55.694;26.994;2023-04-24T09:11:47;22.8;35
72919;SHT30;68407;55.694;26.994;2023-04-24T09:16:35;22.8;33.3
72919;SHT30;68407;55.694;26.994;2023-04-24T09:21:57;22.6;33.4
72919;SHT30;68407;55.694;26.994;2023-04-24T09:26:43;22.7;33.9
72919;SHT30;68407;55.694;26.994;2023-04-24T09:31:14;23;34.5
72919;SHT30;68407;55.694;26.994;2023-04-24T09:36:31;23.3;34.4
72919;SHT30;68407;55.694;26.994;2023-04-24T09:41:57;23.5;33.4
72919;SHT30;68407;55.694;26.994;2023-04-24T09:46:33;23.3;33.2
72919;SHT30;68407;55.694;26.994;2023-04-24T09:51:15;23.3;32.6
72919;SHT30;68407;55.694;26.994;2023-04-24T09:56:45;23.4;32.2
72919;SHT30;68407;55.694;26.994;2023-04-24T10:01:13;23.5;31.6
72919;SHT30;68407;55.694;26.994;2023-04-24T10:06:43;23.4;31.5
72919;SHT30;68407;55.694;26.994;2023-04-24T10:11:13;23.5;32.5
72919;SHT30;68407;55.694;26.994;2023-04-24T10:16:33;23.1;32.4
72919;SHT30;68407;55.694;26.994;2023-04-24T10:21:49;23;33.5
72919;SHT30;68407;55.694;26.994;2023-04-24T10:26:57;22.3;33.3
72919;SHT30;68407;55.694;26.994;2023-04-24T10:31:25;22;34.1
72919;SHT30;68407;55.694;26.994;2023-04-24T10:36:31;23.1;34.4
72919;SHT30;68407;55.694;26.994;2023-04-24T10:41:49;23.6;32.8
72919;SHT30;68407;55.694;26.994;2023-04-24T10:46:43;24;32.9
72919;SHT30;68407;55.694;26.994;2023-04-24T10:51:42;24.1;32.6
72919;SHT30;68407;55.694;26.994;2023-04-24T10:56:45;23.3;33
72919;SHT30;68407;55.694;26.994;2023-04-24T11:01:57;23;34.3
72919;SHT30;68407;55.694;26.994;2023-04-24T11:06:57;24.1;33.9
72919;SHT30;68407;55.694;26.994;2023-04-24T11:11:31;24.5;32.8
72919;SHT30;68407;55.694;26.994;2023-04-24T11:16:57;24.3;31.9
72919;SHT30;68407;55.694;26.994;2023-04-24T11:21:54;23.1;32.8
72919;SHT30;68407;55.694;26.994;2023-04-24T11:26:17;22.6;34.3
72919;SHT30;68407;55.694;26.994;2023-04-24T11:31:45;23.6;34.7
72919;SHT30;68407;55.694;26.994;2023-04-24T11:36:57;24.4;33.4
72919;SHT30;68407;55.694;26.994;2023-04-24T11:41:13;23.6;32.8
72919;SHT30;68407;55.694;26.994;2023-04-24T11:46:39;23.7;34.1
72919;SHT30;68407;55.694;26.994;2023-04-24T11:51:57;24.6;33.2
72919;SHT30;68407;55.694;26.994;2023-04-24T11:56:16;24.7;31.6
72919;SHT30;68407;55.694;26.994;2023-04-24T12:01:42;24.7;31.9
72919;SHT30;68407;55.694;26.994;2023-04-24T12:06:37;24.9;31.9
72919;SHT30;68407;55.694;26.994;2023-04-24T12:11:14;24.3;32.2
72919;SHT30;68407;55.694;26.994;2023-04-24T12:16:49;23.7;33.8
72919;SHT30;68407;55.694;26.994;2023-04-24T12:21:15;24;33.6
72919;SHT30;68407;55.694;26.994;2023-04-24T12:26:15;24;33.1
72919;SHT30;68407;55.694;26.994;2023-04-24T12:31:45;23.8;34.2
72919;SHT30;68407;55.694;26.994;2023-04-24T12:37:09;23.5;34.9
72919;SHT30;68407;55.694;26.994;2023-04-24T12:41:25;23.9;34.2
72919;SHT30;68407;55.694;26.994;2023-04-24T12:46:35;24.2;33.9
72919;SHT30;68407;55.694;26.994;2023-04-24T12:51:49;24.4;33.2
72919;SHT30;68407;55.694;26.994;2023-04-24T12:56:59;23.8;33.8
72919;SHT30;68407;55.694;26.994;2023-04-24T13:01:35;24.3;34.3
72919;SHT30;68407;55.694;26.994;2023-04-24T13:06:13;24.8;33.7
72919;SHT30;68407;55.694;26.994;2023-04-24T13:11:59;24.4;33.4
72919;SHT30;68407;55.694;26.994;2023-04-24T13:16:25;24;34
72919;SHT30;68407;55.694;26.994;2023-04-24T13:21:13;23.9;34.2
72919;SHT30;68407;55.694;26.994;2023-04-24T13:26:29;23.4;34.8
72919;SHT30;68407;55.694;26.994;2023-04-24T13:31:57;22.9;35.6
72919;SHT30;68407;55.694;26.994;2023-04-24T13:36:13;22.6;35.9
72919;SHT30;68407;55.694;26.994;2023-04-24T13:41:57;22.4;36.1
72919;SHT30;68407;55.694;26.994;2023-04-24T13:46:55;22.4;36
72919;SHT30;68407;55.694;26.994;2023-04-24T13:51:47;22.3;35.7
72919;SHT30;68407;55.694;26.994;2023-04-24T13:56:13;22.4;35.6
72919;SHT30;68407;55.694;26.994;2023-04-24T14:01:45;22.4;35.6
72919;SHT30;68407;55.694;26.994;2023-04-24T14:06:41;22.6;35.3
72919;SHT30;68407;55.694;26.994;2023-04-24T14:11:47;22.9;35.8
72919;SHT30;68407;55.694;26.994;2023-04-24T14:16:23;23;35.4
72919;SHT30;68407;55.694;26.994;2023-04-24T14:21:57;22.6;35.6
72919;SHT30;68407;55.694;26.994;2023-04-24T14:26:15;22.4;36.3
72919;SHT30;68407;55.694;26.994;2023-04-24T14:31:13;23.5;35.8
72919;SHT30;68407;55.694;26.994;2023-04-24T14:36:33;24.3;34.4
72919;SHT30;68407;55.694;26.994;2023-04-24T14:41:59;24.2;33.6
72919;SHT30;68407;55.694;26.994;2023-04-24T14:46:23;24.1;33.5
72919;SHT30;68407;55.694;26.994;2023-04-24T14:51:15;23.8;34.2
72919;SHT30;68407;55.694;26.994;2023-04-24T14:56:45;23.5;34.7
72919;SHT30;68407;55.694;26.994;2023-04-24T15:01:13;23.7;34.9
72919;SHT30;68407;55.694;26.994;2023-04-24T15:06:43;23.8;34.9
72919;SHT30;68407;55.694;26.994;2023-04-24T15:11:37;23.4;35.5
72919;SHT30;68407;55.694;26.994;2023-04-24T15:16:43;23.6;35.7
72919;SHT30;68407;55.694;26.994;2023-04-24T15:21:49;24.1;34.9
72919;SHT30;68407;55.694;26.994;2023-04-24T15:26:55;24.4;34.5
72919;SHT30;68407;55.694;26.994;2023-04-24T15:31:13;24.4;34.4
72919;SHT30;68407;55.694;26.994;2023-04-24T15:36:45;23.9;34.2
72919;SHT30;68407;55.694;26.994;2023-04-24T15:41:47;23.9;34.7
72919;SHT30;68407;55.694;26.994;2023-04-24T15:46:47;24;34.7
72919;SHT30;68407;55.694;26.994;2023-04-24T15:51:25;24;34.2
72919;SHT30;68407;55.694;26.994;2023-04-24T15:56:23;23.7;34
72919;SHT30;68407;55.694;26.994;2023-04-24T16:01:59;23.5;34.3
72919;SHT30;68407;55.694;26.994;2023-04-24T16:06:59;23.2;34.9
72919;SHT30;68407;55.694;26.994;2023-04-24T16:11:59;23.1;35.2
72919;SHT30;68407;55.694;26.994;2023-04-24T16:16:57;22.8;35.5
72919;SHT30;68407;55.694;26.994;2023-04-24T16:21:49;22.6;35.8
72919;SHT30;68407;55.694;26.994;2023-04-24T16:26:13;22.1;36.5
72919;SHT30;68407;55.694;26.994;2023-04-24T16:31:29;21.4;37.3
72919;SHT30;68407;55.694;26.994;2023-04-24T16:36:59;21.2;37.6
72919;SHT30;68407;55.694;26.994;2023-04-24T16:41:13;21.2;37.3
72919;SHT30;68407;55.694;26.994;2023-04-24T16:46:39;21;37.4
72919;SHT30;68407;55.694;26.994;2023-04-24T16:51:57;20.9;37.6
72919;SHT30;68407;55.694;26.994;2023-04-24T16:56:13;20.6;38.2
72919;SHT30;68407;55.694;26.994;2023-04-24T17:01:35;20.4;38.6
72919;SHT30;68407;55.694;26.994;2023-04-24T17:06:33;20;39.2
72919;SHT30;68407;55.694;26.994;2023-04-24T17:11:43;19.6;39.7
72919;SHT30;68407;55.694;26.994;2023-04-24T17:16:49;19.3;40.5
72919;SHT30;68407;55.694;26.994;2023-04-24T17:21:37;18.9;41.3
72919;SHT30;68407;55.694;26.994;2023-04-24T17:26:57;18.6;41.7
72919;SHT30;68407;55.694;26.994;2023-04-24T17:31:25;18.2;42.5
72919;SHT30;68407;55.694;26.994;2023-04-24T17:36:25;17.9;43.1
72919;SHT30;68407;55.694;26.994;2023-04-24T17:41:13;17.6;43.9
72919;SHT30;68407;55.694;26.994;2023-04-24T17:46:59;17.4;43.9
72919;SHT30;68407;55.694;26.994;2023-04-24T17:51:35;17.1;44.8
72919;SHT30;68407;55.694;26.994;2023-04-24T17:56:47;16.8;44.9
72919;SHT30;68407;55.694;26.994;2023-04-24T18:01:47;16.7;45.1
72919;SHT30;68407;55.694;26.994;2023-04-24T18:06:35;16.6;44.9
72919;SHT30;68407;55.694;26.994;2023-04-24T18:11:59;16.4;45.4
72919;SHT30;68407;55.694;26.994;2023-04-24T18:16:37;16.3;45.4
72919;SHT30;68407;55.694;26.994;2023-04-24T18:21:25;16.2;45.8
72919;SHT30;68407;55.694;26.994;2023-04-24T18:26:49;16.1;46
72919;SHT30;68407;55.694;26.994;2023-04-24T18:31:57;15.9;46.2
72919;SHT30;68407;55.694;26.994;2023-04-24T18:36:23;15.8;46.4
72919;SHT30;68407;55.694;26.994;2023-04-24T18:41:45;15.7;46.6
72919;SHT30;68407;55.694;26.994;2023-04-24T18:46:49;15.6;46.3
72919;SHT30;68407;55.694;26.994;2023-04-24T18:51:45;15.5;46.8
72919;SHT30;68407;55.694;26.994;2023-04-24T18:56:35;15.4;46.9
72919;SHT30;68407;55.694;26.994;2023-04-24T19:01:33;15.2;47.4
72919;SHT30;68407;55.694;26.994;2023-04-24T19:06:57;15.1;47.6
72919;SHT30;68407;55.694;26.994;2023-04-24T19:11:57;15.1;47.5
72919;SHT30;68407;55.694;26.994;2023-04-24T19:16:13;15;48.2
72919;SHT30;68407;55.694;26.994;2023-04-24T19:21:57;14.8;48.3
72919;SHT30;68407;55.694;26.994;2023-04-24T19:26:49;14.7;48.6
72919;SHT30;68407;55.694;26.994;2023-04-24T19:31:57;14.6;49.2
72919;SHT30;68407;55.694;26.994;2023-04-24T19:36:33;14.5;49.4
72919;SHT30;68407;55.694;26.994;2023-04-24T19:41:57;14.4;50
72919;SHT30;68407;55.694;26.994;2023-04-24T19:46:13;14.3;50.4
72919;SHT30;68407;55.694;26.994;2023-04-24T19:51:43;14.3;50.6
72919;SHT30;68407;55.694;26.994;2023-04-24T19:56:57;14.3;50.7
72919;SHT30;68407;55.694;26.994;2023-04-24T20:01:13;14.3;50.8
72919;SHT30;68407;55.694;26.994;2023-04-24T20:06:35;14.2;50.9
72919;SHT30;68407;55.694;26.994;2023-04-24T20:11:37;14.2;51.1
72919;SHT30;68407;55.694;26.994;2023-04-24T20:16:21;14.3;51.1
72919;SHT30;68407;55.694;26.994;2023-04-24T20:21:49;14.3;51.2
72919;SHT30;68407;55.694;26.994;2023-04-24T20:26:37;14.3;51.4
72919;SHT30;68407;55.694;26.994;2023-04-24T20:31:31;14.3;51.5
72919;SHT30;68407;55.694;26.994;2023-04-24T20:36:35;14.2;51.7
72919;SHT30;68407;55.694;26.994;2023-04-24T20:41:57;14.1;51.9
72919;SHT30;68407;55.694;26.994;2023-04-24T20:46:13;14;52.1
72919;SHT30;68407;55.694;26.994;2023-04-24T20:51:57;13.9;52.3
72919;SHT30;68407;55.694;26.994;2023-04-24T20:56:49;13.8;52.4
72919;SHT30;68407;55.694;26.994;2023-04-24T21:01:43;13.8;52.4
72919;SHT30;68407;55.694;26.994;2023-04-24T21:06:45;13.7;52.5
72919;SHT30;68407;55.694;26.994;2023-04-24T21:11:33;13.7;52.6
72919;SHT30;68407;55.694;26.994;2023-04-24T21:16:43;13.7;52.5
72919;SHT30;68407;55.694;26.994;2023-04-24T21:21:37;13.6;52.7
72919;SHT30;68407;55.694;26.994;2023-04-24T21:26:25;13.5;52.8
72919;SHT30;68407;55.694;26.994;2023-04-24T21:31:49;13.4;52.9
72919;SHT30;68407;55.694;26.994;2023-04-24T21:36:59;13.4;53.1
72919;SHT30;68407;55.694;26.994;2023-04-24T21:41:13;13.4;53.2
72919;SHT30;68407;55.694;26.994;2023-04-24T21:46:45;13.4;53.2
72919;SHT30;68407;55.694;26.994;2023-04-24T21:51:51;13.3;53.4
72919;SHT30;68407;55.694;26.994;2023-04-24T21:56:49;13.4;53.3
72919;SHT30;68407;55.694;26.994;2023-04-24T22:01:25;13.4;53.3
72919;SHT30;68407;55.694;26.994;2023-04-24T22:06:47;13.4;53.3
72919;SHT30;68407;55.694;26.994;2023-04-24T22:11:59;13.4;53.2
72919;SHT30;68407;55.694;26.994;2023-04-24T22:16:59;13.4;53.2
72919;SHT30;68407;55.694;26.994;2023-04-24T22:21:13;13.4;53.2
72919;SHT30;68407;55.694;26.994;2023-04-24T22:26:59;13.4;53.3
72919;SHT30;68407;55.694;26.994;2023-04-24T22:31:51;13.4;53.2
72919;SHT30;68407;55.694;26.994;2023-04-24T22:36:25;13.4;53.4
72919;SHT30;68407;55.694;26.994;2023-04-24T22:41:25;13.4;53.3
72919;SHT30;68407;55.694;26.994;2023-04-24T22:46:59;13.4;53.2
72919;SHT30;68407;55.694;26.994;2023-04-24T22:51:13;13.4;53.2
72919;SHT30;68407;55.694;26.994;2023-04-24T22:56:47;13.4;53.4
72919;SHT30;68407;55.694;26.994;2023-04-24T23:01:59;13.3;53.3
72919;SHT30;68407;55.694;26.994;2023-04-24T23:06:23;13.3;53.5
72919;SHT30;68407;55.694;26.994;2023-04-24T23:11:25;13.2;53.7
72919;SHT30;68407;55.694;26.994;2023-04-24T23:16:27;13.2;53.6
72919;SHT30;68407;55.694;26.994;2023-04-24T23:21:13;13.2;53.8
72919;SHT30;68407;55.694;26.994;2023-04-24T23:26:51;13.2;53.8
72919;SHT30;68407;55.694;26.994;2023-04-24T23:31:39;13.2;53.7
72919;SHT30;68407;55.694;26.994;2023-04-24T23:36:31;13.2;53.9
72919;SHT30;68407;55.694;26.994;2023-04-24T23:41:43;13.2;54.1
72919;SHT30;68407;55.694;26.994;2023-04-24T23:46:59;13.1;54.3
72919;SHT30;68407;55.694;26.994;2023-04-24T23:51:31;13.1;54.4
72919;SHT30;68407;55.694;26.994;2023-04-24T23:56:13;13;54.7
